Time;durP1;ratioP1;P1;durP2;ratioP2;P2;SDS_P1;SDS_P2;PMS_P1;PMS_P2;Temp;Humidity;BMP_temperature;BMP_pressure;BME280_temperature;BME280_humidity;BME280_pressure;Samples;Min_cycle;Max_cycle;Signal;HPM_P1;HPM_P2
2024/01/22 00:00:38;;;;;;;5.67;3.03;;;;;;;4.27;85.96;99777.12;7206682;40;20243;31
2024/01/22 00:06:12;;;;;;;7.30;3.40;;;;;;;4.07;85.32;99757.25;7214288;40;20260;31
2024/01/22 00:11:44;;;;;;;6.70;3.90;;;;;;;3.94;84.83;99752.91;7264304;39;20279;31
2024/01/22 00:17:19;;;;;;;5.57;3.63;;;;;;;3.85;84.96;99737.59;7238575;40;20247;31
2024/01/22 00:22:55;;;;;;;5.60;3.70;;;;;;;3.76;85.43;99746.25;7241384;40;20254;31
2024/01/22 00:28:31;;;;;;;5.20;3.80;;;;;;;3.70;85.83;99730.69;7178745;40;20259;31
2024/01/22 00:34:06;;;;;;;7.97;3.75;;;;;;;3.62;85.61;99736.56;7228567;40;20344;31
2024/01/22 00:44:47;;;;;;;8.60;4.43;;;;;;;3.45;85.69;99710.28;7258439;39;20428;31
2024/01/22 00:50:08;;;;;;;6.65;4.75;;;;;;;3.43;84.80;99712.19;7240863;40;20499;31
2024/01/22 00:55:26;;;;;;;9.60;5.00;;;;;;;3.36;86.57;99717.09;7189275;40;20273;31
2024/01/22 01:01:03;;;;;;;7.10;5.10;;;;;;;3.31;85.32;99691.75;7221617;40;20485;31
2024/01/22 01:06:23;;;;;;;10.35;5.10;;;;;;;3.31;85.72;99692.59;7222701;40;20278;31
2024/01/22 01:11:43;;;;;;;5.83;4.23;;;;;;;3.30;86.39;99682.91;7311948;39;20404;31
2024/01/22 01:22:24;;;;;;;6.90;4.65;;;;;;;3.25;87.48;99671.72;7300136;39;20251;31
2024/01/22 01:32:58;;;;;;;7.17;4.40;;;;;;;3.26;86.77;99677.91;7298092;39;21320;31
2024/01/22 01:43:39;;;;;;;6.83;4.23;;;;;;;3.23;87.32;99668.31;7229031;40;20255;31
2024/01/22 01:49:14;;;;;;;6.60;3.80;;;;;;;3.23;87.23;99656.81;7032091;40;21230;31
2024/01/22 01:54:50;;;;;;;9.40;3.80;;;;;;;3.20;87.71;99646.41;7231067;40;20277;31
2024/01/22 02:00:26;;;;;;;10.70;3.80;;;;;;;3.21;87.50;99646.25;7240180;40;20242;31
2024/01/22 02:06:01;;;;;;;6.47;3.47;;;;;;;3.24;88.87;99638.06;7177953;40;20527;31
2024/01/22 02:11:37;;;;;;;5.50;3.05;;;;;;;3.31;89.93;99619.81;7220243;40;20246;31
2024/01/22 02:17:13;;;;;;;4.17;3.17;;;;;;;3.43;90.15;99618.94;7220320;40;20247;31
2024/01/22 02:22:48;;;;;;;4.37;2.27;;;;;;;3.52;90.06;99604.94;7198769;40;20247;31
2024/01/22 02:28:24;;;;;;;4.07;2.30;;;;;;;3.64;90.90;99602.22;7146018;40;20286;31
2024/01/22 02:33:44;;;;;;;8.50;2.83;;;;;;;4.00;91.62;99597.78;7139304;40;20275;31
2024/01/22 02:39:04;;;;;;;4.05;2.50;;;;;;;3.89;91.10;99579.94;7128799;40;20258;31
2024/01/22 02:44:40;;;;;;;5.60;2.60;;;;;;;3.90;90.59;99575.47;7131019;40;20378;31
2024/01/22 02:50:15;;;;;;;4.47;2.30;;;;;;;4.20;92.68;99575.81;7230494;40;20242;31
2024/01/22 02:55:36;;;;;;;4.62;2.37;;;;;;;4.51;91.38;99560.94;7244281;40;20360;31
2024/01/22 03:07:12;;;;;;;4.00;2.40;;;;;;;4.35;91.00;99549.75;7296567;39;20764;31
2024/01/22 03:17:44;;;;;;;4.65;2.15;;;;;;;4.36;89.89;99532.78;7276732;39;20257;31
2024/01/22 03:23:20;;;;;;;5.47;2.23;;;;;;;4.23;90.72;99532.88;7242890;40;20258;31
2024/01/22 03:28:55;;;;;;;4.73;2.60;;;;;;;4.24;90.19;99537.25;7233567;40;20240;31
2024/01/22 03:34:16;;;;;;;4.50;2.53;;;;;;;4.21;89.82;99520.63;7259033;40;20241;31
2024/01/22 03:39:51;;;;;;;4.57;2.20;;;;;;;4.13;89.78;99529.22;7297073;39;20716;31
2024/01/22 03:45:26;;;;;;;4.10;2.70;;;;;;;4.03;88.41;99530.91;7262246;40;20347;31
2024/01/22 03:51:01;;;;;;;5.35;2.70;;;;;;;3.94;88.64;99548.44;7200264;40;20424;31
2024/01/22 03:56:37;;;;;;;3.90;2.60;;;;;;;3.91;89.24;99537.16;7177705;40;20252;31
2024/01/22 04:02:12;;;;;;;5.77;2.80;;;;;;;3.92;89.18;99526.38;7175483;40;20363;31
2024/01/22 04:07:33;;;;;;;3.70;2.30;;;;;;;3.94;89.13;99510.28;7201387;40;20241;31
2024/01/22 04:13:10;;;;;;;4.70;2.30;;;;;;;3.93;89.18;99509.41;7260191;40;20351;31
2024/01/22 04:18:31;;;;;;;2.27;2.00;;;;;;;4.04;88.77;99524.56;7237393;40;20327;31
2024/01/22 04:23:52;;;;;;;3.70;2.13;;;;;;;4.07;88.75;99503.88;7250369;39;20253;31
2024/01/22 04:34:31;;;;;;;2.60;1.90;;;;;;;4.29;88.20;99481.72;7324886;39;21343;31
2024/01/22 04:44:56;;;;;;;4.05;2.10;;;;;;;4.45;86.52;99455.50;7289927;39;20471;31
2024/01/22 04:50:32;;;;;;;2.70;1.95;;;;;;;4.42;85.09;99445.09;7298250;39;20311;31
2024/01/22 04:55:53;;;;;;;3.67;2.10;;;;;;;4.39;85.51;99445.31;7253758;40;20387;31
2024/01/22 05:01:29;;;;;;;4.60;2.10;;;;;;;4.30;85.03;99435.38;7260577;40;20253;31
2024/01/22 05:07:04;;;;;;;3.35;2.00;;;;;;;4.31;84.45;99431.75;7221206;40;20257;31
2024/01/22 05:12:25;;;;;;;3.10;2.20;;;;;;;4.32;84.38;99421.91;7205597;40;20479;31
2024/01/22 05:18:01;;;;;;;4.10;2.50;;;;;;;4.25;84.42;99415.38;7277696;40;20390;31
2024/01/22 05:23:38;;;;;;;4.33;2.83;;;;;;;4.22;83.79;99412.94;7295339;39;20251;31
2024/01/22 05:28:58;;;;;;;4.00;2.70;;;;;;;4.24;83.65;99393.19;7276277;39;20270;31
2024/01/22 05:39:39;;;;;;;3.35;2.00;;;;;;;4.20;83.61;99375.75;7261551;40;20759;31
2024/01/22 05:44:59;;;;;;;3.80;1.90;;;;;;;4.25;83.37;99372.69;7208109;40;20380;31
2024/01/22 05:50:35;;;;;;;7.80;3.65;;;;;;;4.30;82.70;99374.00;7248075;40;20731;31
2024/01/22 06:01:20;;;;;;;3.42;1.77;;;;;;;4.44;81.40;99347.06;7367586;38;9824305;31
2024/01/22 06:06:55;;;;;;;5.50;1.90;;;;;;;4.50;81.65;99335.91;7448828;39;20250;31
2024/01/22 06:12:30;;;;;;;2.60;1.77;;;;;;;4.50;82.03;99325.22;7388360;39;20372;31
2024/01/22 06:18:07;;;;;;;3.15;1.90;;;;;;;4.56;81.41;99307.03;7368490;39;20255;31
2024/01/22 06:23:42;;;;;;;2.75;1.70;;;;;;;4.65;81.46;99298.25;7285022;39;20260;31
2024/01/22 06:29:04;;;;;;;5.50;1.80;;;;;;;4.76;80.93;99299.06;7307741;39;20581;31
2024/01/22 06:34:40;;;;;;;4.23;1.70;;;;;;;4.79;80.83;99288.12;7334202;39;20400;31
2024/01/22 06:40:00;;;;;;;3.43;1.80;;;;;;;4.87;79.96;99279.47;7318021;39;20326;31
2024/01/22 06:45:20;;;;;;;4.23;2.53;;;;;;;5.02;80.30;99263.97;7298170;39;20389;31
2024/01/22 06:50:53;;;;;;;2.75;1.70;;;;;;;5.10;80.18;99248.13;7331350;39;20244;31
2024/01/22 06:56:28;;;;;;;2.50;1.50;;;;;;;5.20;78.83;99244.56;7374162;39;20367;31
2024/01/22 07:02:03;;;;;;;3.27;1.70;;;;;;;5.30;79.04;99256.16;7355969;39;20457;31
2024/01/22 07:07:37;;;;;;;2.65;1.80;;;;;;;5.35;79.15;99237.06;7333321;39;20264;31
2024/01/22 07:12:58;;;;;;;4.13;1.67;;;;;;;5.42;78.46;99235.53;7306536;39;20255;31
2024/01/22 07:18:18;;;;;;;3.17;1.53;;;;;;;5.48;78.51;99242.19;7318380;39;20241;31
2024/01/22 07:23:53;;;;;;;2.17;1.70;;;;;;;5.46;78.26;99234.28;7302349;39;20266;31
2024/01/22 07:29:30;;;;;;;9.17;1.97;;;;;;;5.44;79.68;99215.69;7370975;39;20243;31
2024/01/22 07:34:50;;;;;;;3.83;1.83;;;;;;;5.47;80.06;99225.28;7411541;39;20243;31
2024/01/22 07:40:25;;;;;;;3.15;1.80;;;;;;;5.41;80.02;99213.31;7383709;39;20302;31
2024/01/22 07:45:43;;;;;;;3.80;1.80;;;;;;;5.39;81.16;99222.44;7347874;39;20707;31
2024/01/22 07:51:01;;;;;;;2.60;1.70;;;;;;;5.34;83.09;99233.53;7348800;39;21342;31
2024/01/22 07:56:37;;;;;;;4.60;1.87;;;;;;;5.28;84.02;99236.72;7391335;39;20235;31
2024/01/22 08:02:13;;;;;;;5.10;2.30;;;;;;;5.18;85.96;99235.81;7367092;39;20326;31
2024/01/22 08:07:47;;;;;;;3.90;2.30;;;;;;;5.11;88.52;99237.31;7316891;39;20277;31
2024/01/22 08:13:24;;;;;;;5.33;2.30;;;;;;;5.06;90.37;99228.00;7295494;39;20291;31
2024/01/22 08:18:45;;;;;;;3.35;2.20;;;;;;;5.07;92.91;99251.06;7267882;40;20256;31
2024/01/22 08:24:05;;;;;;;16.50;7.70;;;;;;;5.10;94.23;99248.13;7236930;40;20267;31
2024/01/22 08:34:46;;;;;;;3.90;2.20;;;;;;;5.31;99.82;99241.78;7371805;39;21333;31
2024/01/22 08:40:21;;;;;;;4.00;2.40;;;;;;;5.36;100.00;99244.91;7338237;39;21204;31
2024/01/22 08:45:35;;;;;;;3.03;2.20;;;;;;;5.47;100.00;99252.03;7329876;39;20798;31
2024/01/22 08:51:11;;;;;;;2.27;1.77;;;;;;;5.50;100.00;99245.53;7379376;39;20243;31
2024/01/22 08:56:46;;;;;;;4.47;2.23;;;;;;;5.55;100.00;99243.31;7325081;39;21351;31
2024/01/22 09:02:04;;;;;;;5.30;2.20;;;;;;;5.58;100.00;99233.19;7344314;39;20268;31
2024/01/22 09:12:45;;;;;;;4.57;2.20;;;;;;;5.77;100.00;99219.06;7300257;39;20397;31
2024/01/22 09:23:06;;;;;;;2.30;2.10;;;;;;;5.98;100.00;99219.84;7387607;39;20432;31
2024/01/22 09:28:38;;;;;;;3.00;2.20;;;;;;;6.07;100.00;99228.88;7399892;39;20250;31
2024/01/22 09:33:55;;;;;;;5.77;2.90;;;;;;;6.22;100.00;99204.28;7357963;39;20268;31
2024/01/22 09:39:16;;;;;;;5.07;2.17;;;;;;;6.42;100.00;99204.28;7379697;39;20253;31
2024/01/22 09:44:52;;;;;;;3.97;1.60;;;;;;;6.56;100.00;99193.16;7355386;39;20362;31
2024/01/22 09:50:11;;;;;;;2.64;1.68;;;;;;;6.76;100.00;99198.34;7354235;39;20303;31
2024/01/22 09:55:43;;;;;;;2.67;1.80;;;;;;;6.85;100.00;99193.97;7329613;39;20263;31
2024/01/22 10:01:17;;;;;;;5.62;1.60;;;;;;;6.92;100.00;99192.44;7319974;39;20256;31
2024/01/22 10:06:37;;;;;;;5.70;2.25;;;;;;;6.98;100.00;99188.31;7298722;39;20247;31
2024/01/22 10:12:10;;;;;;;1.80;1.40;;;;;;;6.93;100.00;99185.25;7317131;39;20792;31
2024/01/22 10:17:41;;;;;;;2.00;1.70;;;;;;;6.92;100.00;99195.09;7353378;39;21221;31
2024/01/22 10:23:16;;;;;;;2.50;1.60;;;;;;;6.98;100.00;99178.44;7347440;39;20437;31
2024/01/22 10:28:49;;;;;;;2.70;1.80;;;;;;;6.97;100.00;99159.84;7358245;39;20293;31
2024/01/22 10:34:25;;;;;;;4.45;2.10;;;;;;;6.98;100.00;99134.72;7316019;39;20230;31
2024/01/22 10:40:00;;;;;;;2.43;1.63;;;;;;;7.01;100.00;99145.16;7343797;39;20258;31
2024/01/22 10:45:32;;;;;;;4.50;1.80;;;;;;;7.07;100.00;99134.69;7348077;39;21118;31
2024/01/22 10:51:09;;;;;;;2.30;1.70;;;;;;;7.20;100.00;99108.41;7371425;39;21404;31
2024/01/22 10:56:45;;;;;;;2.57;1.90;;;;;;;7.29;100.00;99108.50;7266057;40;20241;31
2024/01/22 11:02:18;;;;;;;3.80;2.30;;;;;;;7.36;100.00;99094.37;7317540;39;20578;31
2024/01/22 11:07:54;;;;;;;4.30;2.30;;;;;;;7.42;100.00;99076.84;7327227;39;20300;31
2024/01/22 11:13:29;;;;;;;3.37;2.10;;;;;;;7.48;100.00;99095.00;7330188;39;20241;31
2024/01/22 11:19:11;;;;;;;3.97;2.67;;;;;;;7.50;100.00;99064.37;7298508;39;20309;31
2024/01/22 11:24:47;;;;;;;4.87;2.60;;;;;;;7.47;100.00;99064.69;7289556;39;20360;31
2024/01/22 11:30:42;;;;;;;4.97;2.60;;;;;;;7.46;100.00;99064.84;7217202;40;20265;31
2024/01/22 11:36:18;;;;;;;3.77;2.80;;;;;;;7.51;100.00;99054.47;7242427;40;20261;31
2024/01/22 11:41:55;;;;;;;7.50;4.35;;;;;;;7.57;100.00;99065.47;7272908;39;20265;31
2024/01/22 11:47:30;;;;;;;2.73;1.40;;;;;;;7.89;100.00;99085.59;7271683;40;21605;31
2024/01/22 11:53:05;;;;;;;3.47;1.83;;;;;;;8.58;100.00;99057.00;7275633;40;20376;31
2024/01/22 11:58:39;;;;;;;2.60;1.50;;;;;;;8.89;100.00;99045.78;7298518;39;20542;31
2024/01/22 12:04:37;;;;;;;3.20;1.63;;;;;;;9.07;100.00;99024.19;7275132;39;20261;31
2024/01/22 12:15:15;;;;;;;1.30;1.07;;;;;;;9.38;100.00;99017.25;7347603;39;21267;31
2024/01/22 12:25:53;;;;;;;2.50;1.50;;;;;;;9.49;97.81;98980.13;7343937;39;21360;31
2024/01/22 12:31:27;;;;;;;2.85;1.52;;;;;;;9.58;96.71;98972.06;7152201;39;21653;31
2024/01/22 12:36:45;;;;;;;2.45;1.10;;;;;;;9.66;96.74;98982.84;7309221;39;20369;31
2024/01/22 12:47:25;;;;;;;2.87;1.40;;;;;;;9.78;95.50;98951.91;7317643;39;20280;31
2024/01/22 12:53:00;;;;;;;2.73;1.30;;;;;;;9.72;96.83;98968.72;7283761;39;21313;31
2024/01/22 12:58:18;;;;;;;2.73;1.50;;;;;;;9.73;96.63;98971.25;7362375;39;20494;31
2024/01/22 13:03:56;;;;;;;1.57;1.20;;;;;;;9.66;96.73;98975.59;7342099;39;20367;31
2024/01/22 13:09:28;;;;;;;1.70;1.10;;;;;;;9.71;96.55;98999.31;7306722;39;20244;31
2024/01/22 13:15:03;;;;;;;2.40;1.00;;;;;;;9.71;96.41;98975.94;7260361;39;20261;31
2024/01/22 13:20:39;;;;;;;2.03;1.27;;;;;;;9.77;95.59;98951.06;7247273;40;21477;31
2024/01/22 13:26:14;;;;;;;3.80;1.20;;;;;;;9.76;95.08;98968.22;7266015;40;20250;31
2024/01/22 13:31:49;;;;;;;1.83;1.10;;;;;;;9.79;94.89;98959.81;7206994;40;20251;31
2024/01/22 13:37:26;;;;;;;3.45;1.50;;;;;;;9.83;93.91;98973.75;7216634;40;20276;31
2024/01/22 13:42:46;;;;;;;3.90;1.50;;;;;;;9.84;93.78;98981.69;7234099;40;20401;31
2024/01/22 13:48:07;;;;;;;2.50;1.70;;;;;;;9.82;94.03;98964.87;7295030;39;20233;31
2024/01/22 13:53:44;;;;;;;4.35;1.60;;;;;;;9.80;93.17;98977.63;7293859;39;20339;31
2024/01/22 14:04:11;;;;;;;5.70;2.25;;;;;;;9.95;92.37;99008.28;7289845;39;20263;31
2024/01/22 14:14:51;;;;;;;5.33;2.20;;;;;;;9.90;91.70;98975.62;7400597;39;20618;31
2024/01/22 14:20:08;;;;;;;7.36;2.48;;;;;;;10.01;91.26;98981.69;7400288;39;20613;31
2024/01/22 14:25:44;;;;;;;7.35;2.60;;;;;;;9.91;91.52;98974.63;7351652;39;20325;31
2024/01/22 14:31:18;;;;;;;6.05;3.15;;;;;;;9.86;91.54;98966.22;7317592;39;20419;31
2024/01/22 14:36:54;;;;;;;10.60;5.20;;;;;;;9.87;92.23;98970.56;7275976;39;20480;31
2024/01/22 14:42:29;;;;;;;5.60;2.70;;;;;;;9.83;92.19;98966.53;7267505;39;20260;31
2024/01/22 14:48:04;;;;;;;7.03;2.00;;;;;;;9.80;92.64;98982.19;7228105;40;20494;31
2024/01/22 14:53:22;;;;;;;4.57;2.13;;;;;;;9.81;93.77;98986.56;7210894;40;20555;31
2024/01/22 14:58:58;;;;;;;3.05;1.35;;;;;;;9.74;94.54;99005.22;7273581;39;20248;31
2024/01/22 15:04:35;;;;;;;3.80;1.77;;;;;;;9.59;96.39;98993.44;7290557;40;20311;31
2024/01/22 15:10:11;;;;;;;5.20;1.85;;;;;;;9.52;97.12;99014.75;7279260;40;20346;31
2024/01/22 15:15:46;;;;;;;32.87;13.43;;;;;;;9.46;97.76;99019.97;7297924;39;20377;31
2024/01/22 15:21:22;;;;;;;63.40;29.40;;;;;;;9.41;98.36;99054.59;7288086;39;20263;31
2024/01/22 15:26:42;;;;;;;10.20;4.50;;;;;;;9.37;98.86;99058.59;7281333;39;20405;31
2024/01/22 15:32:17;;;;;;;5.43;3.13;;;;;;;9.35;98.50;99037.25;7295317;39;20260;31
2024/01/22 15:37:57;;;;;;;5.20;2.90;;;;;;;9.30;98.97;99098.72;7299752;40;20241;31
2024/01/22 15:43:29;;;;;;;3.87;2.17;;;;;;;9.25;99.32;99102.94;7273802;39;20236;31
2024/01/22 15:48:50;;;;;;;2.60;1.60;;;;;;;9.20;99.29;99105.25;7246376;39;20270;31
2024/01/22 15:54:23;;;;;;;3.80;1.80;;;;;;;9.11;98.81;99138.47;7319353;39;20238;31
2024/01/22 15:59:41;;;;;;;2.87;1.80;;;;;;;9.07;99.27;99132.56;7280173;39;20565;31
2024/01/22 16:05:13;;;;;;;4.20;2.20;;;;;;;9.00;97.78;99159.25;7289591;39;20336;31
2024/01/22 16:10:48;;;;;;;4.60;2.50;;;;;;;8.86;96.86;99175.94;7279384;40;20290;31
2024/01/22 16:16:24;;;;;;;3.43;2.17;;;;;;;8.79;96.66;99171.34;7265496;39;20457;31
2024/01/22 16:21:56;;;;;;;4.47;1.67;;;;;;;8.70;96.77;99208.06;7289915;39;20437;31
2024/01/22 16:27:32;;;;;;;5.70;2.67;;;;;;;8.60;95.98;99213.50;7236292;40;20367;31
2024/01/22 16:32:53;;;;;;;5.25;1.80;;;;;;;8.53;95.54;99219.66;7200100;40;20241;31
2024/01/22 16:38:13;;;;;;;5.73;2.07;;;;;;;8.45;95.69;99231.16;7275566;39;20318;31
2024/01/22 16:43:47;;;;;;;6.28;2.05;;;;;;;8.37;96.66;99223.03;7289976;39;21104;31
2024/01/22 16:49:22;;;;;;;6.33;2.23;;;;;;;8.31;95.75;99217.41;7339466;39;20244;31
2024/01/22 16:54:54;;;;;;;7.80;2.00;;;;;;;8.28;96.65;99234.66;7320512;39;20511;31
2024/01/22 17:00:31;;;;;;;8.53;2.10;;;;;;;8.18;96.10;99219.56;7268185;39;20248;31
2024/01/22 17:06:06;;;;;;;6.50;2.40;;;;;;;8.16;96.65;99249.28;7207685;40;20336;31
2024/01/22 17:11:41;;;;;;;7.20;2.10;;;;;;;8.10;96.29;99253.41;7215375;40;20750;31
2024/01/22 17:17:17;;;;;;;9.90;3.90;;;;;;;8.05;96.50;99271.78;7226999;40;20354;31
2024/01/22 17:22:52;;;;;;;12.90;4.50;;;;;;;8.06;96.61;99283.38;7246051;40;20250;31
2024/01/22 17:28:12;;;;;;;13.25;5.60;;;;;;;8.05;96.90;99320.09;7277878;39;20321;31
2024/01/22 17:33:49;;;;;;;12.43;5.27;;;;;;;8.02;97.46;99325.78;7288378;39;20245;31
2024/01/22 17:39:24;;;;;;;10.80;4.85;;;;;;;8.00;97.60;99349.22;7257540;39;20238;31
2024/01/22 17:44:44;;;;;;;9.35;4.15;;;;;;;8.04;97.74;99377.47;7226424;40;20241;31
2024/01/22 17:50:19;;;;;;;10.60;4.10;;;;;;;8.04;98.07;99417.72;7278891;40;20245;31
2024/01/22 17:55:55;;;;;;;6.60;2.85;;;;;;;8.07;98.44;99422.78;7248658;40;20300;31
2024/01/22 18:01:14;;;;;;;9.63;4.10;;;;;;;8.06;98.36;99396.97;7239054;40;20298;31
2024/01/22 18:06:48;;;;;;;9.10;3.80;;;;;;;8.00;97.75;99410.94;7260883;39;20280;31
2024/01/22 18:12:09;;;;;;;6.60;2.60;;;;;;;7.97;98.18;99408.56;7277878;39;20251;31
2024/01/22 18:17:29;;;;;;;8.23;3.20;;;;;;;7.95;97.83;99415.91;7292941;39;20225;31
2024/01/22 18:23:03;;;;;;;8.30;3.10;;;;;;;7.92;98.29;99436.81;7292068;39;20652;31
2024/01/22 18:28:38;;;;;;;6.30;2.10;;;;;;;7.89;97.34;99463.94;7265695;39;20405;31
2024/01/22 18:34:13;;;;;;;8.93;3.03;;;;;;;7.87;96.97;99479.34;7246178;40;20234;31
2024/01/22 18:39:45;;;;;;;6.60;2.90;;;;;;;7.80;97.21;99503.22;7216581;40;20269;31
2024/01/22 18:45:07;;;;;;;5.73;1.87;;;;;;;7.80;96.64;99508.59;7237207;39;20303;31
2024/01/22 18:50:22;;;;;;;5.47;1.70;;;;;;;7.81;97.04;99512.94;7278097;39;20378;31
2024/01/22 18:55:55;;;;;;;4.83;1.53;;;;;;;7.77;96.79;99530.31;7296429;39;20292;31
2024/01/22 19:01:13;;;;;;;6.35;1.80;;;;;;;7.81;96.87;99534.41;7132331;39;21182;31
2024/01/22 19:06:46;;;;;;;6.37;1.93;;;;;;;7.75;96.68;99540.34;7364693;39;20365;31
2024/01/22 19:12:21;;;;;;;6.80;1.90;;;;;;;7.73;96.68;99539.62;7330368;39;20248;31
2024/01/22 19:17:39;;;;;;;4.85;2.05;;;;;;;7.72;96.47;99551.37;7324383;39;20430;31
2024/01/22 19:22:59;;;;;;;5.17;2.00;;;;;;;7.70;97.02;99562.25;7327070;39;20327;31
2024/01/22 19:28:34;;;;;;;5.90;1.73;;;;;;;7.66;97.06;99565.34;7304195;39;20340;31
2024/01/22 19:34:09;;;;;;;5.50;1.60;;;;;;;7.67;96.37;99567.03;7276804;39;20358;31
2024/01/22 19:39:30;;;;;;;5.70;2.25;;;;;;;7.70;96.91;99564.91;7294940;39;20248;31
2024/01/22 19:45:03;;;;;;;8.63;3.90;;;;;;;7.66;96.32;99579.59;7330150;39;20274;31
2024/01/22 19:50:22;;;;;;;11.40;1.80;;;;;;;7.72;96.42;99588.09;7327370;39;20272;31
2024/01/22 19:55:55;;;;;;;5.53;1.70;;;;;;;7.70;96.13;99591.75;7335167;39;20460;31
2024/01/22 20:06:35;;;;;;;6.83;1.57;;;;;;;7.69;96.41;99610.66;7371312;39;20747;31
2024/01/22 20:16:57;;;;;;;4.57;1.53;;;;;;;7.67;97.77;99616.19;7336632;39;22038;31
2024/01/22 20:22:28;;;;;;;7.90;2.20;;;;;;;7.67;97.31;99623.38;7357000;39;20283;31
2024/01/22 20:33:05;;;;;;;3.90;1.90;;;;;;;7.72;96.47;99660.53;7318630;39;20348;31
2024/01/22 20:38:43;;;;;;;5.73;1.70;;;;;;;7.62;96.57;99620.25;7312233;39;20468;31
2024/01/22 20:44:12;;;;;;;4.30;1.70;;;;;;;7.58;97.48;99642.97;7307209;39;20352;31
2024/01/22 20:49:47;;;;;;;3.10;1.40;;;;;;;7.55;96.86;99611.03;7322103;39;20245;31
2024/01/22 20:55:24;;;;;;;3.87;1.57;;;;;;;7.46;96.48;99606.53;7329265;39;20360;31
2024/01/22 21:00:43;;;;;;;6.10;2.65;;;;;;;7.43;97.10;99613.00;7288675;39;20265;31
2024/01/22 21:06:05;;;;;;;5.30;1.60;;;;;;;7.44;97.62;99643.34;7241054;40;20454;31
2024/01/22 21:11:43;;;;;;;4.45;1.60;;;;;;;7.41;97.46;99632.91;7311254;39;20260;31
2024/01/22 21:16:59;;;;;;;3.75;1.40;;;;;;;7.41;97.35;99649.84;7288274;40;20545;31
2024/01/22 21:22:35;;;;;;;4.47;1.80;;;;;;;7.30;97.85;99660.66;7279832;39;20240;31
2024/01/22 21:28:11;;;;;;;5.32;3.15;;;;;;;7.28;98.63;99668.00;7367414;39;20240;31
2024/01/22 21:33:31;;;;;;;14.10;9.50;;;;;;;7.33;97.92;99670.28;7328007;39;20256;31
2024/01/22 21:38:52;;;;;;;8.73;4.30;;;;;;;7.31;98.79;99666.88;7382394;39;20221;31
2024/01/22 21:44:29;;;;;;;5.27;3.00;;;;;;;7.24;97.89;99664.72;7342588;39;20243;31
2024/01/22 21:50:04;;;;;;;7.40;5.00;;;;;;;7.18;97.96;99694.75;7283237;39;21106;31
2024/01/22 21:55:39;;;;;;;29.50;17.60;;;;;;;7.15;98.60;99689.63;7287531;39;20452;31
2024/01/22 22:01:15;;;;;;;16.70;11.25;;;;;;;7.12;99.95;99697.09;7234079;40;20246;31
2024/01/22 22:06:35;;;;;;;9.05;4.95;;;;;;;7.04;99.73;99700.44;7258021;39;20458;31
2024/01/22 22:12:10;;;;;;;11.55;3.15;;;;;;;7.10;99.50;99697.25;7308642;39;20330;31
2024/01/22 22:17:46;;;;;;;6.07;2.10;;;;;;;7.22;100.00;99690.81;7301595;39;20754;31
2024/01/22 22:23:03;;;;;;;5.43;2.03;;;;;;;7.48;100.00;99690.38;7290197;39;21383;31
2024/01/22 22:28:24;;;;;;;5.67;2.23;;;;;;;7.60;99.09;99702.69;7357780;39;20235;31
2024/01/22 22:34:02;;;;;;;5.90;1.85;;;;;;;7.64;97.87;99694.22;7350234;39;20247;31
2024/01/22 22:39:37;;;;;;;9.00;2.25;;;;;;;7.69;97.00;99692.00;7314679;39;20304;31
2024/01/22 22:45:12;;;;;;;8.97;2.20;;;;;;;7.76;96.29;99700.38;7340183;39;20372;31
2024/01/22 22:50:49;;;;;;;9.00;2.05;;;;;;;7.76;95.29;99718.28;7289023;39;20304;31
2024/01/22 22:56:24;;;;;;;6.53;2.03;;;;;;;7.80;94.90;99717.03;7226082;40;20415;31
2024/01/22 23:01:44;;;;;;;9.30;2.27;;;;;;;7.79;95.53;99751.06;7235860;40;20288;31
2024/01/22 23:07:21;;;;;;;12.15;2.60;;;;;;;7.76;95.15;99758.53;7292975;39;20272;31
2024/01/22 23:12:56;;;;;;;4.77;2.07;;;;;;;7.76;94.81;99739.75;7300455;39;20397;31
2024/01/22 23:18:32;;;;;;;7.60;1.80;;;;;;;7.77;93.78;99736.91;7268749;40;20310;31
2024/01/22 23:24:08;;;;;;;4.95;1.70;;;;;;;7.77;94.07;99744.97;7328448;39;20240;31
2024/01/22 23:29:29;;;;;;;9.70;2.40;;;;;;;7.84;93.96;99754.19;7348557;39;20372;31
2024/01/22 23:34:49;;;;;;;8.83;1.97;;;;;;;7.81;93.80;99741.03;7338381;39;20380;31
2024/01/22 23:40:26;;;;;;;10.45;2.40;;;;;;;7.81;93.26;99751.75;7315598;39;21142;31
2024/01/22 23:45:46;;;;;;;8.63;2.10;;;;;;;7.85;93.61;99772.00;7263484;39;20349;31
2024/01/22 23:51:22;;;;;;;7.85;2.10;;;;;;;7.80;92.81;99758.13;7305092;39;20253;31
2024/01/22 23:56:58;;;;;;;7.55;2.20;;;;;;;7.77;92.18;99774.47;7291857;39;20239;31
